sensor_id;sensor_type;location;lat;lon;timestamp;P1;durP1;ratioP1;P2;durP2;ratioP2
7001;SDS011;3541;53.230;10.518;2023-03-04T00:00:02;11.27;;;3.80;;
7001;SDS011;3541;53.230;10.518;2023-03-04T00:02:30;14.77;;;3.67;;
7001;SDS011;3541;53.230;10.518;2023-03-04T00:04:56;12.30;;;3.40;;
7001;SDS011;3541;53.230;10.518;2023-03-04T00:07:23;13.70;;;3.60;;
7001;SDS011;3541;53.230;10.518;2023-03-04T00:09:49;17.10;;;4.50;;
7001;SDS011;3541;53.230;10.518;2023-03-04T00:12:16;16.03;;;4.60;;
7001;SDS011;3541;53.230;10.518;2023-03-04T00:14:44;20.53;;;4.20;;
7001;SDS011;3541;53.230;10.518;2023-03-04T00:17:10;15.57;;;4.17;;
7001;SDS011;3541;53.230;10.518;2023-03-04T00:19:37;14.33;;;4.07;;
7001;SDS011;3541;53.230;10.518;2023-03-04T00:22:03;18.70;;;3.90;;
7001;SDS011;3541;53.230;10.518;2023-03-04T00:24:30;15.03;;;4.63;;
7001;SDS011;3541;53.230;10.518;2023-03-04T00:26:57;14.17;;;4.60;;
7001;SDS011;3541;53.230;10.518;2023-03-04T00:29:24;15.43;;;4.23;;
7001;SDS011;3541;53.230;10.518;2023-03-04T00:31:52;12.63;;;3.53;;
7001;SDS011;3541;53.230;10.518;2023-03-04T00:34:19;15.87;;;3.70;;
7001;SDS011;3541;53.230;10.518;2023-03-04T00:36:45;12.17;;;3.63;;
7001;SDS011;3541;53.230;10.518;2023-03-04T00:39:12;12.40;;;3.80;;
7001;SDS011;3541;53.230;10.518;2023-03-04T00:41:39;13.40;;;3.40;;
7001;SDS011;3541;53.230;10.518;2023-03-04T00:44:06;15.90;;;4.67;;
7001;SDS011;3541;53.230;10.518;2023-03-04T00:46:32;12.90;;;4.30;;
7001;SDS011;3541;53.230;10.518;2023-03-04T00:49:00;11.03;;;4.03;;
7001;SDS011;3541;53.230;10.518;2023-03-04T00:51:27;8.40;;;4.10;;
7001;SDS011;3541;53.230;10.518;2023-03-04T00:53:53;11.40;;;4.23;;
7001;SDS011;3541;53.230;10.518;2023-03-04T00:56:20;14.73;;;4.23;;
7001;SDS011;3541;53.230;10.518;2023-03-04T00:58:46;15.53;;;5.27;;
7001;SDS011;3541;53.230;10.518;2023-03-04T01:01:13;14.30;;;3.93;;
7001;SDS011;3541;53.230;10.518;2023-03-04T01:03:40;13.00;;;3.57;;
7001;SDS011;3541;53.230;10.518;2023-03-04T01:06:08;11.97;;;3.10;;
7001;SDS011;3541;53.230;10.518;2023-03-04T01:08:35;12.90;;;3.90;;
7001;SDS011;3541;53.230;10.518;2023-03-04T01:11:02;10.83;;;3.13;;
7001;SDS011;3541;53.230;10.518;2023-03-04T01:13:29;9.37;;;3.43;;
7001;SDS011;3541;53.230;10.518;2023-03-04T01:15:55;14.20;;;3.40;;
7001;SDS011;3541;53.230;10.518;2023-03-04T01:18:22;9.17;;;3.33;;
7001;SDS011;3541;53.230;10.518;2023-03-04T01:20:49;14.20;;;2.97;;
7001;SDS011;3541;53.230;10.518;2023-03-04T01:23:17;13.60;;;3.10;;
7001;SDS011;3541;53.230;10.518;2023-03-04T01:25:43;11.60;;;3.77;;
7001;SDS011;3541;53.230;10.518;2023-03-04T01:28:10;7.47;;;3.00;;
7001;SDS011;3541;53.230;10.518;2023-03-04T01:30:37;12.87;;;2.97;;
7001;SDS011;3541;53.230;10.518;2023-03-04T01:33:03;7.73;;;2.70;;
7001;SDS011;3541;53.230;10.518;2023-03-04T01:35:30;9.23;;;2.60;;
7001;SDS011;3541;53.230;10.518;2023-03-04T01:37:56;15.33;;;3.00;;
7001;SDS011;3541;53.230;10.518;2023-03-04T01:40:24;7.07;;;2.50;;
7001;SDS011;3541;53.230;10.518;2023-03-04T01:42:51;5.87;;;2.40;;
7001;SDS011;3541;53.230;10.518;2023-03-04T01:45:18;13.97;;;3.50;;
7001;SDS011;3541;53.230;10.518;2023-03-04T01:47:46;10.37;;;2.80;;
7001;SDS011;3541;53.230;10.518;2023-03-04T01:50:15;12.60;;;2.70;;
7001;SDS011;3541;53.230;10.518;2023-03-04T01:52:44;11.63;;;3.60;;
7001;SDS011;3541;53.230;10.518;2023-03-04T01:55:13;11.37;;;3.00;;
7001;SDS011;3541;53.230;10.518;2023-03-04T01:57:43;8.17;;;2.83;;
7001;SDS011;3541;53.230;10.518;2023-03-04T02:00:18;6.93;;;2.80;;
7001;SDS011;3541;53.230;10.518;2023-03-04T02:02:56;6.83;;;2.50;;
7001;SDS011;3541;53.230;10.518;2023-03-04T02:05:24;11.27;;;2.50;;
7001;SDS011;3541;53.230;10.518;2023-03-04T02:07:51;11.80;;;3.10;;
7001;SDS011;3541;53.230;10.518;2023-03-04T02:10:20;12.73;;;2.70;;
7001;SDS011;3541;53.230;10.518;2023-03-04T02:12:48;9.23;;;2.70;;
7001;SDS011;3541;53.230;10.518;2023-03-04T02:15:14;6.80;;;1.93;;
7001;SDS011;3541;53.230;10.518;2023-03-04T02:17:41;12.67;;;2.50;;
7001;SDS011;3541;53.230;10.518;2023-03-04T02:20:12;9.97;;;2.17;;
7001;SDS011;3541;53.230;10.518;2023-03-04T02:22:52;5.90;;;2.00;;
7001;SDS011;3541;53.230;10.518;2023-03-04T02:25:26;5.67;;;1.87;;
7001;SDS011;3541;53.230;10.518;2023-03-04T02:27:59;15.43;;;2.10;;
7001;SDS011;3541;53.230;10.518;2023-03-04T02:30:26;11.93;;;2.53;;
7001;SDS011;3541;53.230;10.518;2023-03-04T02:32:53;6.10;;;1.80;;
7001;SDS011;3541;53.230;10.518;2023-03-04T02:35:20;6.40;;;1.80;;
7001;SDS011;3541;53.230;10.518;2023-03-04T02:37:46;8.87;;;2.07;;
7001;SDS011;3541;53.230;10.518;2023-03-04T02:40:14;8.43;;;2.47;;
7001;SDS011;3541;53.230;10.518;2023-03-04T02:42:46;5.73;;;1.83;;
7001;SDS011;3541;53.230;10.518;2023-03-04T02:45:34;5.47;;;1.77;;
7001;SDS011;3541;53.230;10.518;2023-03-04T02:48:03;10.30;;;2.20;;
7001;SDS011;3541;53.230;10.518;2023-03-04T02:50:32;5.43;;;1.83;;
7001;SDS011;3541;53.230;10.518;2023-03-04T02:53:00;7.07;;;2.07;;
7001;SDS011;3541;53.230;10.518;2023-03-04T02:55:27;6.87;;;1.83;;
7001;SDS011;3541;53.230;10.518;2023-03-04T02:57:54;6.77;;;2.20;;
7001;SDS011;3541;53.230;10.518;2023-03-04T03:00:21;7.63;;;1.80;;
7001;SDS011;3541;53.230;10.518;2023-03-04T03:02:49;6.63;;;1.93;;
7001;SDS011;3541;53.230;10.518;2023-03-04T03:05:15;6.57;;;2.10;;
7001;SDS011;3541;53.230;10.518;2023-03-04T03:07:42;9.83;;;1.93;;
7001;SDS011;3541;53.230;10.518;2023-03-04T03:10:09;6.23;;;2.27;;
7001;SDS011;3541;53.230;10.518;2023-03-04T03:12:37;5.40;;;2.30;;
7001;SDS011;3541;53.230;10.518;2023-03-04T03:15:03;9.03;;;2.60;;
7001;SDS011;3541;53.230;10.518;2023-03-04T03:17:31;9.90;;;2.43;;
7001;SDS011;3541;53.230;10.518;2023-03-04T03:19:58;6.37;;;1.60;;
7001;SDS011;3541;53.230;10.518;2023-03-04T03:22:25;5.07;;;1.40;;
7001;SDS011;3541;53.230;10.518;2023-03-04T03:24:52;8.70;;;1.93;;
7001;SDS011;3541;53.230;10.518;2023-03-04T03:27:18;8.00;;;1.97;;
7001;SDS011;3541;53.230;10.518;2023-03-04T03:29:45;8.27;;;1.90;;
7001;SDS011;3541;53.230;10.518;2023-03-04T03:32:11;6.13;;;1.67;;
7001;SDS011;3541;53.230;10.518;2023-03-04T03:34:38;10.80;;;2.30;;
7001;SDS011;3541;53.230;10.518;2023-03-04T03:37:06;7.97;;;1.63;;
7001;SDS011;3541;53.230;10.518;2023-03-04T03:39:32;9.07;;;2.10;;
7001;SDS011;3541;53.230;10.518;2023-03-04T03:41:59;9.83;;;2.07;;
7001;SDS011;3541;53.230;10.518;2023-03-04T03:44:25;9.17;;;2.43;;
7001;SDS011;3541;53.230;10.518;2023-03-04T03:46:52;5.73;;;2.30;;
7001;SDS011;3541;53.230;10.518;2023-03-04T03:49:19;8.10;;;2.03;;
7001;SDS011;3541;53.230;10.518;2023-03-04T03:51:45;12.53;;;3.53;;
7001;SDS011;3541;53.230;10.518;2023-03-04T03:54:13;12.70;;;2.53;;
7001;SDS011;3541;53.230;10.518;2023-03-04T03:56:40;6.60;;;2.53;;
7001;SDS011;3541;53.230;10.518;2023-03-04T03:59:06;7.23;;;2.47;;
7001;SDS011;3541;53.230;10.518;2023-03-04T04:01:33;9.73;;;3.27;;
7001;SDS011;3541;53.230;10.518;2023-03-04T04:03:59;7.47;;;2.57;;
7001;SDS011;3541;53.230;10.518;2023-03-04T04:06:26;6.47;;;2.50;;
7001;SDS011;3541;53.230;10.518;2023-03-04T04:08:53;5.47;;;2.53;;
7001;SDS011;3541;53.230;10.518;2023-03-04T04:11:21;9.50;;;2.90;;
7001;SDS011;3541;53.230;10.518;2023-03-04T04:13:47;9.07;;;3.13;;
7001;SDS011;3541;53.230;10.518;2023-03-04T04:16:14;9.63;;;2.70;;
7001;SDS011;3541;53.230;10.518;2023-03-04T04:18:40;6.17;;;2.20;;
7001;SDS011;3541;53.230;10.518;2023-03-04T04:21:08;7.67;;;3.13;;
7001;SDS011;3541;53.230;10.518;2023-03-04T04:23:34;9.23;;;2.70;;
7001;SDS011;3541;53.230;10.518;2023-03-04T04:26:01;8.43;;;2.20;;
7001;SDS011;3541;53.230;10.518;2023-03-04T04:28:29;6.70;;;2.50;;
7001;SDS011;3541;53.230;10.518;2023-03-04T04:30:56;7.60;;;2.43;;
7001;SDS011;3541;53.230;10.518;2023-03-04T04:33:22;11.70;;;3.83;;
7001;SDS011;3541;53.230;10.518;2023-03-04T04:35:49;5.37;;;2.10;;
7001;SDS011;3541;53.230;10.518;2023-03-04T04:38:15;8.90;;;2.40;;
7001;SDS011;3541;53.230;10.518;2023-03-04T04:40:42;6.87;;;2.37;;
7001;SDS011;3541;53.230;10.518;2023-03-04T04:43:08;10.20;;;2.67;;
7001;SDS011;3541;53.230;10.518;2023-03-04T04:45:36;8.77;;;2.37;;
7001;SDS011;3541;53.230;10.518;2023-03-04T04:48:03;9.00;;;2.20;;
7001;SDS011;3541;53.230;10.518;2023-03-04T04:50:29;11.20;;;2.53;;
7001;SDS011;3541;53.230;10.518;2023-03-04T04:52:56;6.27;;;2.00;;
7001;SDS011;3541;53.230;10.518;2023-03-04T04:55:22;9.23;;;2.37;;
7001;SDS011;3541;53.230;10.518;2023-03-04T04:57:49;7.93;;;2.87;;
7001;SDS011;3541;53.230;10.518;2023-03-04T05:00:16;10.10;;;3.10;;
7001;SDS011;3541;53.230;10.518;2023-03-04T05:02:45;6.43;;;2.47;;
7001;SDS011;3541;53.230;10.518;2023-03-04T05:05:11;6.80;;;2.10;;
7001;SDS011;3541;53.230;10.518;2023-03-04T05:07:38;10.77;;;3.13;;
7001;SDS011;3541;53.230;10.518;2023-03-04T05:10:05;8.27;;;2.53;;
7001;SDS011;3541;53.230;10.518;2023-03-04T05:12:32;6.13;;;2.10;;
7001;SDS011;3541;53.230;10.518;2023-03-04T05:14:59;6.80;;;2.80;;
7001;SDS011;3541;53.230;10.518;2023-03-04T05:17:26;6.27;;;2.40;;
7001;SDS011;3541;53.230;10.518;2023-03-04T05:19:53;13.23;;;3.03;;
7001;SDS011;3541;53.230;10.518;2023-03-04T05:22:20;9.67;;;2.67;;
7001;SDS011;3541;53.230;10.518;2023-03-04T05:24:46;8.47;;;2.40;;
7001;SDS011;3541;53.230;10.518;2023-03-04T05:27:13;6.30;;;2.40;;
7001;SDS011;3541;53.230;10.518;2023-03-04T05:29:40;7.10;;;2.50;;
7001;SDS011;3541;53.230;10.518;2023-03-04T05:32:08;5.33;;;2.20;;
7001;SDS011;3541;53.230;10.518;2023-03-04T05:34:35;6.53;;;3.13;;
7001;SDS011;3541;53.230;10.518;2023-03-04T05:37:03;3.47;;;2.20;;
7001;SDS011;3541;53.230;10.518;2023-03-04T05:39:29;8.80;;;3.17;;
7001;SDS011;3541;53.230;10.518;2023-03-04T05:41:56;7.37;;;2.20;;
7001;SDS011;3541;53.230;10.518;2023-03-04T05:44:22;6.80;;;2.60;;
7001;SDS011;3541;53.230;10.518;2023-03-04T05:46:49;8.53;;;2.50;;
7001;SDS011;3541;53.230;10.518;2023-03-04T05:49:16;8.90;;;2.53;;
7001;SDS011;3541;53.230;10.518;2023-03-04T05:51:42;6.10;;;2.47;;
7001;SDS011;3541;53.230;10.518;2023-03-04T05:54:10;4.50;;;2.63;;
7001;SDS011;3541;53.230;10.518;2023-03-04T05:56:37;6.20;;;2.87;;
7001;SDS011;3541;53.230;10.518;2023-03-04T05:59:03;6.57;;;2.87;;
7001;SDS011;3541;53.230;10.518;2023-03-04T06:01:30;9.67;;;2.77;;
7001;SDS011;3541;53.230;10.518;2023-03-04T06:03:56;11.03;;;2.50;;
7001;SDS011;3541;53.230;10.518;2023-03-04T06:06:23;6.80;;;2.23;;
7001;SDS011;3541;53.230;10.518;2023-03-04T06:08:50;7.10;;;2.10;;
7001;SDS011;3541;53.230;10.518;2023-03-04T06:11:17;6.70;;;2.53;;
7001;SDS011;3541;53.230;10.518;2023-03-04T06:13:44;8.63;;;2.53;;
7001;SDS011;3541;53.230;10.518;2023-03-04T06:16:11;7.17;;;1.90;;
7001;SDS011;3541;53.230;10.518;2023-03-04T06:18:37;4.63;;;2.40;;
7001;SDS011;3541;53.230;10.518;2023-03-04T06:21:04;5.70;;;2.63;;
7001;SDS011;3541;53.230;10.518;2023-03-04T06:23:31;10.93;;;2.60;;
7001;SDS011;3541;53.230;10.518;2023-03-04T06:25:58;7.83;;;2.47;;
7001;SDS011;3541;53.230;10.518;2023-03-04T06:28:27;7.13;;;2.27;;
7001;SDS011;3541;53.230;10.518;2023-03-04T06:30:55;8.50;;;2.13;;
7001;SDS011;3541;53.230;10.518;2023-03-04T06:33:22;10.90;;;2.23;;
7001;SDS011;3541;53.230;10.518;2023-03-04T06:35:52;9.07;;;2.87;;
7001;SDS011;3541;53.230;10.518;2023-03-04T06:38:20;12.67;;;3.17;;
7001;SDS011;3541;53.230;10.518;2023-03-04T06:40:46;9.73;;;3.10;;
7001;SDS011;3541;53.230;10.518;2023-03-04T06:43:13;11.43;;;2.90;;
7001;SDS011;3541;53.230;10.518;2023-03-04T06:45:41;10.67;;;3.30;;
7001;SDS011;3541;53.230;10.518;2023-03-04T06:48:07;10.07;;;3.30;;
7001;SDS011;3541;53.230;10.518;2023-03-04T06:50:34;17.17;;;3.37;;
7001;SDS011;3541;53.230;10.518;2023-03-04T06:53:01;11.27;;;4.03;;
7001;SDS011;3541;53.230;10.518;2023-03-04T06:55:27;15.47;;;3.67;;
7001;SDS011;3541;53.230;10.518;2023-03-04T06:57:54;16.60;;;3.80;;
7001;SDS011;3541;53.230;10.518;2023-03-04T07:00:20;14.40;;;3.80;;
7001;SDS011;3541;53.230;10.518;2023-03-04T07:02:49;18.17;;;4.10;;
7001;SDS011;3541;53.230;10.518;2023-03-04T07:05:16;12.97;;;3.63;;
7001;SDS011;3541;53.230;10.518;2023-03-04T07:07:43;18.83;;;4.80;;
7001;SDS011;3541;53.230;10.518;2023-03-04T07:10:10;12.63;;;3.57;;
7001;SDS011;3541;53.230;10.518;2023-03-04T07:12:37;11.53;;;4.23;;
7001;SDS011;3541;53.230;10.518;2023-03-04T07:15:04;20.43;;;4.30;;
7001;SDS011;3541;53.230;10.518;2023-03-04T07:17:31;15.00;;;4.20;;
7001;SDS011;3541;53.230;10.518;2023-03-04T07:20:00;16.97;;;4.20;;
7001;SDS011;3541;53.230;10.518;2023-03-04T07:22:27;11.13;;;4.07;;
7001;SDS011;3541;53.230;10.518;2023-03-04T07:24:53;15.33;;;4.43;;
7001;SDS011;3541;53.230;10.518;2023-03-04T07:27:20;19.33;;;4.37;;
7001;SDS011;3541;53.230;10.518;2023-03-04T07:29:47;22.33;;;4.60;;
7001;SDS011;3541;53.230;10.518;2023-03-04T07:32:13;20.87;;;4.37;;
7001;SDS011;3541;53.230;10.518;2023-03-04T07:34:40;19.50;;;4.23;;
7001;SDS011;3541;53.230;10.518;2023-03-04T07:37:07;20.63;;;4.40;;
7001;SDS011;3541;53.230;10.518;2023-03-04T07:39:34;12.60;;;4.90;;
7001;SDS011;3541;53.230;10.518;2023-03-04T07:42:01;16.93;;;4.57;;
7001;SDS011;3541;53.230;10.518;2023-03-04T07:44:27;15.50;;;4.03;;
7001;SDS011;3541;53.230;10.518;2023-03-04T07:46:54;15.70;;;4.03;;
7001;SDS011;3541;53.230;10.518;2023-03-04T07:49:21;17.07;;;3.63;;
7001;SDS011;3541;53.230;10.518;2023-03-04T07:51:47;15.17;;;4.10;;
7001;SDS011;3541;53.230;10.518;2023-03-04T07:54:15;15.80;;;4.17;;
7001;SDS011;3541;53.230;10.518;2023-03-04T07:56:44;14.93;;;4.30;;
7001;SDS011;3541;53.230;10.518;2023-03-04T07:59:10;15.17;;;3.67;;
7001;SDS011;3541;53.230;10.518;2023-03-04T08:01:37;14.47;;;4.40;;
7001;SDS011;3541;53.230;10.518;2023-03-04T08:04:04;9.73;;;3.40;;
7001;SDS011;3541;53.230;10.518;2023-03-04T08:06:32;12.80;;;3.20;;
7001;SDS011;3541;53.230;10.518;2023-03-04T08:08:59;11.93;;;3.13;;
7001;SDS011;3541;53.230;10.518;2023-03-04T08:11:29;12.87;;;3.93;;
7001;SDS011;3541;53.230;10.518;2023-03-04T08:13:56;12.57;;;3.30;;
7001;SDS011;3541;53.230;10.518;2023-03-04T08:16:23;13.83;;;3.23;;
7001;SDS011;3541;53.230;10.518;2023-03-04T08:18:51;12.90;;;3.00;;
7001;SDS011;3541;53.230;10.518;2023-03-04T08:21:19;11.53;;;2.80;;
7001;SDS011;3541;53.230;10.518;2023-03-04T08:23:47;8.20;;;2.83;;
7001;SDS011;3541;53.230;10.518;2023-03-04T08:26:15;7.97;;;2.80;;
7001;SDS011;3541;53.230;10.518;2023-03-04T08:28:44;13.23;;;3.47;;
7001;SDS011;3541;53.230;10.518;2023-03-04T08:31:11;12.70;;;3.20;;
7001;SDS011;3541;53.230;10.518;2023-03-04T08:33:38;10.93;;;3.03;;
7001;SDS011;3541;53.230;10.518;2023-03-04T08:36:05;11.20;;;2.87;;
7001;SDS011;3541;53.230;10.518;2023-03-04T08:38:32;13.10;;;3.10;;
7001;SDS011;3541;53.230;10.518;2023-03-04T08:40:59;13.87;;;4.87;;
7001;SDS011;3541;53.230;10.518;2023-03-04T08:43:27;14.47;;;2.70;;
7001;SDS011;3541;53.230;10.518;2023-03-04T08:45:55;13.37;;;3.10;;
7001;SDS011;3541;53.230;10.518;2023-03-04T08:48:22;9.83;;;2.70;;
7001;SDS011;3541;53.230;10.518;2023-03-04T08:50:49;10.90;;;2.77;;
7001;SDS011;3541;53.230;10.518;2023-03-04T08:53:16;16.43;;;4.43;;
7001;SDS011;3541;53.230;10.518;2023-03-04T08:55:44;14.70;;;4.67;;
7001;SDS011;3541;53.230;10.518;2023-03-04T08:58:11;17.43;;;4.37;;
7001;SDS011;3541;53.230;10.518;2023-03-04T09:00:38;10.03;;;3.70;;
7001;SDS011;3541;53.230;10.518;2023-03-04T09:03:08;14.60;;;4.03;;
7001;SDS011;3541;53.230;10.518;2023-03-04T09:05:35;18.60;;;4.10;;
7001;SDS011;3541;53.230;10.518;2023-03-04T09:08:03;13.03;;;3.70;;
7001;SDS011;3541;53.230;10.518;2023-03-04T09:10:29;17.57;;;4.07;;
7001;SDS011;3541;53.230;10.518;2023-03-04T09:12:56;15.80;;;4.07;;
7001;SDS011;3541;53.230;10.518;2023-03-04T09:15:25;12.43;;;3.50;;
7001;SDS011;3541;53.230;10.518;2023-03-04T09:17:51;16.63;;;4.03;;
7001;SDS011;3541;53.230;10.518;2023-03-04T09:20:19;17.00;;;3.73;;
7001;SDS011;3541;53.230;10.518;2023-03-04T09:22:47;14.83;;;4.20;;
7001;SDS011;3541;53.230;10.518;2023-03-04T09:25:13;15.87;;;4.03;;
7001;SDS011;3541;53.230;10.518;2023-03-04T09:27:40;19.20;;;3.83;;
7001;SDS011;3541;53.230;10.518;2023-03-04T09:30:07;16.20;;;3.70;;
7001;SDS011;3541;53.230;10.518;2023-03-04T09:32:35;19.07;;;4.10;;
7001;SDS011;3541;53.230;10.518;2023-03-04T09:35:01;12.20;;;3.87;;
7001;SDS011;3541;53.230;10.518;2023-03-04T09:37:30;12.53;;;3.23;;
7001;SDS011;3541;53.230;10.518;2023-03-04T09:39:57;15.03;;;4.13;;
7001;SDS011;3541;53.230;10.518;2023-03-04T09:42:24;12.07;;;3.40;;
7001;SDS011;3541;53.230;10.518;2023-03-04T09:44:53;15.73;;;4.17;;
7001;SDS011;3541;53.230;10.518;2023-03-04T09:47:21;20.80;;;4.43;;
7001;SDS011;3541;53.230;10.518;2023-03-04T09:49:51;16.97;;;3.73;;
7001;SDS011;3541;53.230;10.518;2023-03-04T09:52:25;17.80;;;4.50;;
7001;SDS011;3541;53.230;10.518;2023-03-04T09:55:05;17.63;;;4.10;;
7001;SDS011;3541;53.230;10.518;2023-03-04T09:57:44;15.63;;;4.87;;
7001;SDS011;3541;53.230;10.518;2023-03-04T10:00:17;17.50;;;4.97;;
7001;SDS011;3541;53.230;10.518;2023-03-04T10:03:00;13.67;;;4.23;;
7001;SDS011;3541;53.230;10.518;2023-03-04T10:05:32;15.17;;;4.20;;
7001;SDS011;3541;53.230;10.518;2023-03-04T10:08:07;19.00;;;4.47;;
7001;SDS011;3541;53.230;10.518;2023-03-04T10:10:45;17.47;;;4.07;;
7001;SDS011;3541;53.230;10.518;2023-03-04T10:13:15;17.63;;;4.57;;
7001;SDS011;3541;53.230;10.518;2023-03-04T10:15:47;18.90;;;4.10;;
7001;SDS011;3541;53.230;10.518;2023-03-04T10:18:17;11.43;;;3.10;;
7001;SDS011;3541;53.230;10.518;2023-03-04T10:20:48;13.03;;;3.80;;
7001;SDS011;3541;53.230;10.518;2023-03-04T10:23:20;20.47;;;3.93;;
7001;SDS011;3541;53.230;10.518;2023-03-04T10:25:50;12.60;;;3.53;;
7001;SDS011;3541;53.230;10.518;2023-03-04T10:28:19;19.73;;;4.93;;
7001;SDS011;3541;53.230;10.518;2023-03-04T10:30:50;19.13;;;5.10;;
7001;SDS011;3541;53.230;10.518;2023-03-04T10:33:22;20.77;;;4.93;;
7001;SDS011;3541;53.230;10.518;2023-03-04T10:35:52;19.70;;;4.07;;
7001;SDS011;3541;53.230;10.518;2023-03-04T10:38:27;15.90;;;3.43;;
7001;SDS011;3541;53.230;10.518;2023-03-04T10:40:55;14.43;;;3.87;;
7001;SDS011;3541;53.230;10.518;2023-03-04T10:43:23;11.77;;;3.67;;
7001;SDS011;3541;53.230;10.518;2023-03-04T10:45:51;16.43;;;4.13;;
7001;SDS011;3541;53.230;10.518;2023-03-04T10:48:22;18.07;;;3.77;;
7001;SDS011;3541;53.230;10.518;2023-03-04T10:50:50;23.97;;;5.27;;
7001;SDS011;3541;53.230;10.518;2023-03-04T10:53:29;18.50;;;4.70;;
7001;SDS011;3541;53.230;10.518;2023-03-04T10:55:58;13.90;;;3.80;;
7001;SDS011;3541;53.230;10.518;2023-03-04T10:58:26;21.40;;;3.90;;
7001;SDS011;3541;53.230;10.518;2023-03-04T11:00:58;13.77;;;3.60;;
7001;SDS011;3541;53.230;10.518;2023-03-04T11:03:30;15.30;;;4.23;;
7001;SDS011;3541;53.230;10.518;2023-03-04T11:06:05;23.80;;;8.10;;
7001;SDS011;3541;53.230;10.518;2023-03-04T11:08:37;35.13;;;13.17;;
7001;SDS011;3541;53.230;10.518;2023-03-04T11:11:19;17.80;;;6.00;;
7001;SDS011;3541;53.230;10.518;2023-03-04T11:13:51;19.33;;;5.43;;
7001;SDS011;3541;53.230;10.518;2023-03-04T11:16:23;17.77;;;5.07;;
7001;SDS011;3541;53.230;10.518;2023-03-04T11:18:52;17.60;;;4.00;;
7001;SDS011;3541;53.230;10.518;2023-03-04T11:21:20;20.20;;;5.40;;
7001;SDS011;3541;53.230;10.518;2023-03-04T11:23:51;16.50;;;4.57;;
7001;SDS011;3541;53.230;10.518;2023-03-04T11:26:22;20.17;;;5.87;;
7001;SDS011;3541;53.230;10.518;2023-03-04T11:28:55;18.10;;;5.13;;
7001;SDS011;3541;53.230;10.518;2023-03-04T11:31:27;19.50;;;4.63;;
7001;SDS011;3541;53.230;10.518;2023-03-04T11:33:57;23.40;;;4.60;;
7001;SDS011;3541;53.230;10.518;2023-03-04T11:36:30;22.20;;;5.57;;
7001;SDS011;3541;53.230;10.518;2023-03-04T11:39:01;18.57;;;4.67;;
7001;SDS011;3541;53.230;10.518;2023-03-04T11:41:31;16.10;;;3.97;;
7001;SDS011;3541;53.230;10.518;2023-03-04T11:44:00;14.83;;;4.03;;
7001;SDS011;3541;53.230;10.518;2023-03-04T11:49:28;20.57;;;4.80;;
7001;SDS011;3541;53.230;10.518;2023-03-04T11:52:18;17.23;;;4.77;;
7001;SDS011;3541;53.230;10.518;2023-03-04T11:54:59;15.03;;;3.93;;
7001;SDS011;3541;53.230;10.518;2023-03-04T11:57:36;21.00;;;4.23;;
7001;SDS011;3541;53.230;10.518;2023-03-04T12:00:15;13.77;;;4.40;;
7001;SDS011;3541;53.230;10.518;2023-03-04T12:02:53;21.37;;;4.37;;
7001;SDS011;3541;53.230;10.518;2023-03-04T12:05:37;14.70;;;4.50;;
7001;SDS011;3541;53.230;10.518;2023-03-04T12:11:05;22.70;;;4.83;;
7001;SDS011;3541;53.230;10.518;2023-03-04T12:16:48;18.27;;;4.40;;
7001;SDS011;3541;53.230;10.518;2023-03-04T12:19:36;20.03;;;4.57;;
7001;SDS011;3541;53.230;10.518;2023-03-04T12:22:19;14.27;;;4.80;;
7001;SDS011;3541;53.230;10.518;2023-03-04T12:25:01;19.67;;;5.80;;
7001;SDS011;3541;53.230;10.518;2023-03-04T12:27:37;15.20;;;4.23;;
7001;SDS011;3541;53.230;10.518;2023-03-04T12:30:15;18.57;;;6.77;;
7001;SDS011;3541;53.230;10.518;2023-03-04T12:32:48;19.20;;;6.23;;
7001;SDS011;3541;53.230;10.518;2023-03-04T12:35:23;18.73;;;5.50;;
7001;SDS011;3541;53.230;10.518;2023-03-04T12:38:11;15.93;;;4.50;;
7001;SDS011;3541;53.230;10.518;2023-03-04T12:40:48;19.90;;;4.00;;
7001;SDS011;3541;53.230;10.518;2023-03-04T12:43:31;16.90;;;4.00;;
7001;SDS011;3541;53.230;10.518;2023-03-04T12:46:10;19.37;;;5.47;;
7001;SDS011;3541;53.230;10.518;2023-03-04T12:48:46;17.43;;;4.33;;
7001;SDS011;3541;53.230;10.518;2023-03-04T12:51:23;14.63;;;3.97;;
7001;SDS011;3541;53.230;10.518;2023-03-04T12:53:59;16.17;;;4.13;;
7001;SDS011;3541;53.230;10.518;2023-03-04T12:56:36;12.80;;;5.53;;
7001;SDS011;3541;53.230;10.518;2023-03-04T12:59:11;28.10;;;13.03;;
7001;SDS011;3541;53.230;10.518;2023-03-04T13:01:41;21.23;;;4.73;;
7001;SDS011;3541;53.230;10.518;2023-03-04T13:04:13;16.20;;;3.90;;
7001;SDS011;3541;53.230;10.518;2023-03-04T13:06:47;17.67;;;3.97;;
7001;SDS011;3541;53.230;10.518;2023-03-04T13:09:23;14.77;;;3.63;;
7001;SDS011;3541;53.230;10.518;2023-03-04T13:12:01;18.93;;;3.73;;
7001;SDS011;3541;53.230;10.518;2023-03-04T13:14:31;18.77;;;4.80;;
7001;SDS011;3541;53.230;10.518;2023-03-04T13:17:00;15.53;;;4.13;;
7001;SDS011;3541;53.230;10.518;2023-03-04T13:19:49;10.13;;;3.40;;
7001;SDS011;3541;53.230;10.518;2023-03-04T13:25:28;11.80;;;3.90;;
7001;SDS011;3541;53.230;10.518;2023-03-04T13:28:14;13.50;;;3.73;;
7001;SDS011;3541;53.230;10.518;2023-03-04T13:33:55;14.80;;;4.50;;
7001;SDS011;3541;53.230;10.518;2023-03-04T13:36:34;17.17;;;4.47;;
7001;SDS011;3541;53.230;10.518;2023-03-04T13:39:32;16.43;;;4.47;;
7001;SDS011;3541;53.230;10.518;2023-03-04T13:41:59;14.83;;;3.60;;
7001;SDS011;3541;53.230;10.518;2023-03-04T13:44:30;16.13;;;4.10;;
7001;SDS011;3541;53.230;10.518;2023-03-04T13:47:07;12.97;;;3.43;;
7001;SDS011;3541;53.230;10.518;2023-03-04T13:49:34;11.50;;;3.27;;
7001;SDS011;3541;53.230;10.518;2023-03-04T13:58:14;14.10;;;3.60;;
7001;SDS011;3541;53.230;10.518;2023-03-04T14:00:47;14.13;;;4.03;;
7001;SDS011;3541;53.230;10.518;2023-03-04T14:03:20;20.13;;;3.87;;
7001;SDS011;3541;53.230;10.518;2023-03-04T14:08:34;14.07;;;3.73;;
7001;SDS011;3541;53.230;10.518;2023-03-04T14:11:01;11.13;;;3.83;;
7001;SDS011;3541;53.230;10.518;2023-03-04T14:13:27;25.57;;;6.93;;
7001;SDS011;3541;53.230;10.518;2023-03-04T14:15:54;21.27;;;6.70;;
7001;SDS011;3541;53.230;10.518;2023-03-04T14:18:24;20.63;;;7.37;;
7001;SDS011;3541;53.230;10.518;2023-03-04T14:20:52;20.73;;;4.77;;
7001;SDS011;3541;53.230;10.518;2023-03-04T14:23:23;17.33;;;4.40;;
7001;SDS011;3541;53.230;10.518;2023-03-04T14:26:02;19.13;;;5.23;;
7001;SDS011;3541;53.230;10.518;2023-03-04T14:28:40;13.63;;;3.60;;
7001;SDS011;3541;53.230;10.518;2023-03-04T14:31:10;17.83;;;3.77;;
7001;SDS011;3541;53.230;10.518;2023-03-04T14:33:44;16.07;;;3.10;;
7001;SDS011;3541;53.230;10.518;2023-03-04T14:36:16;12.43;;;3.90;;
7001;SDS011;3541;53.230;10.518;2023-03-04T14:38:48;20.33;;;3.63;;
7001;SDS011;3541;53.230;10.518;2023-03-04T14:41:17;16.40;;;4.50;;
7001;SDS011;3541;53.230;10.518;2023-03-04T14:43:50;13.47;;;3.70;;
7001;SDS011;3541;53.230;10.518;2023-03-04T14:46:20;12.47;;;3.60;;
7001;SDS011;3541;53.230;10.518;2023-03-04T14:48:51;14.03;;;3.87;;
7001;SDS011;3541;53.230;10.518;2023-03-04T14:51:29;13.23;;;3.27;;
7001;SDS011;3541;53.230;10.518;2023-03-04T14:53:58;12.37;;;3.13;;
7001;SDS011;3541;53.230;10.518;2023-03-04T14:56:28;12.10;;;3.77;;
7001;SDS011;3541;53.230;10.518;2023-03-04T14:58:56;21.30;;;3.73;;
7001;SDS011;3541;53.230;10.518;2023-03-04T15:01:27;12.17;;;4.20;;
7001;SDS011;3541;53.230;10.518;2023-03-04T15:03:58;12.77;;;4.00;;
7001;SDS011;3541;53.230;10.518;2023-03-04T15:06:28;17.10;;;4.77;;
7001;SDS011;3541;53.230;10.518;2023-03-04T15:08:57;12.83;;;4.03;;
7001;SDS011;3541;53.230;10.518;2023-03-04T15:11:27;13.70;;;3.50;;
7001;SDS011;3541;53.230;10.518;2023-03-04T15:13:57;10.80;;;3.47;;
7001;SDS011;3541;53.230;10.518;2023-03-04T15:16:25;15.27;;;3.87;;
7001;SDS011;3541;53.230;10.518;2023-03-04T15:18:59;15.00;;;5.40;;
7001;SDS011;3541;53.230;10.518;2023-03-04T15:21:31;13.30;;;4.13;;
7001;SDS011;3541;53.230;10.518;2023-03-04T15:24:00;16.20;;;5.43;;
7001;SDS011;3541;53.230;10.518;2023-03-04T15:26:28;15.67;;;5.93;;